createdAt,value
2023-01-19T00:04:30.008Z,99335.48
2023-01-19T00:09:38.548Z,99354.50
2023-01-19T00:14:44.240Z,99375.29
2023-01-19T00:19:50.080Z,99381.30
2023-01-19T00:24:55.800Z,99390.02
2023-01-19T00:30:02.396Z,99386.74
2023-01-19T00:35:09.257Z,99392.41
2023-01-19T00:40:15.519Z,99409.55
2023-01-19T00:45:23.297Z,99421.51
2023-01-19T00:50:30.942Z,99441.04
2023-01-19T00:55:36.630Z,99440.02
2023-01-19T01:00:42.802Z,99432.80
2023-01-19T01:05:49.002Z,99425.74
2023-01-19T01:10:56.677Z,99414.60
2023-01-19T01:16:02.488Z,99407.41
2023-01-19T01:21:09.799Z,99406.20
2023-01-19T01:26:15.627Z,99404.75
2023-01-19T01:31:21.419Z,99405.42
2023-01-19T01:36:29.329Z,99396.88
2023-01-19T01:41:35.421Z,99390.58
2023-01-19T01:46:41.174Z,99394.93
2023-01-19T01:51:50.777Z,99395.84
2023-01-19T01:57:01.219Z,99390.11
2023-01-19T02:02:30.253Z,99386.61
2023-01-19T02:08:02.281Z,99386.70
2023-01-19T02:13:18.727Z,99388.95
2023-01-19T02:18:29.932Z,99397.00
2023-01-19T02:23:42.030Z,99399.20
2023-01-19T02:28:53.659Z,99397.45
2023-01-19T02:34:00.148Z,99391.59
2023-01-19T02:39:08.773Z,99387.38
2023-01-19T02:44:17.411Z,99387.15
2023-01-19T02:49:23.456Z,99393.15
2023-01-19T02:54:37.593Z,99392.68
2023-01-19T02:59:58.842Z,99393.17
2023-01-19T03:05:35.805Z,99395.52
2023-01-19T03:10:58.251Z,99395.35
2023-01-19T03:16:16.430Z,99383.55
2023-01-19T03:21:26.265Z,99382.70
2023-01-19T03:26:36.337Z,99389.72
2023-01-19T03:34:28.608Z,99406.83
2023-01-19T03:39:36.035Z,99418.55
2023-01-19T03:44:45.572Z,99417.54
2023-01-19T03:49:53.302Z,99425.75
2023-01-19T03:54:59.768Z,99434.50
2023-01-19T04:00:07.747Z,99442.54
2023-01-19T04:05:19.175Z,99445.48
2023-01-19T04:10:25.358Z,99455.74
2023-01-19T04:15:31.817Z,99464.30
2023-01-19T04:20:39.503Z,99467.02
2023-01-19T04:25:45.490Z,99469.09
2023-01-19T04:30:52.841Z,99477.64
2023-01-19T04:35:59.739Z,99478.64
2023-01-19T04:41:06.683Z,99476.59
2023-01-19T04:46:12.688Z,99480.21
2023-01-19T04:51:18.492Z,99488.80
2023-01-19T04:56:24.525Z,99497.72
2023-01-19T05:01:30.811Z,99502.68
2023-01-19T05:06:37.374Z,99509.86
2023-01-19T05:11:43.335Z,99505.78
2023-01-19T05:16:49.081Z,99514.91
2023-01-19T05:21:54.934Z,99521.44
2023-01-19T05:27:01.952Z,99528.79
2023-01-19T05:32:09.547Z,99524.84
2023-01-19T05:37:17.496Z,99519.52
2023-01-19T05:42:23.948Z,99526.89
2023-01-19T05:47:30.445Z,99532.52
2023-01-19T05:52:37.377Z,99534.37
2023-01-19T05:57:43.997Z,99534.00
2023-01-19T06:02:50.221Z,99542.42
2023-01-19T06:07:58.069Z,99547.05
2023-01-19T06:13:04.299Z,99558.54
2023-01-19T06:18:10.472Z,99563.65
2023-01-19T06:23:16.992Z,99565.39
2023-01-19T06:28:23.742Z,99586.98
2023-01-19T06:33:30.060Z,99612.02
2023-01-19T06:38:36.670Z,99625.04
2023-01-19T06:43:42.989Z,99628.82
2023-01-19T06:48:49.251Z,99634.48
2023-01-19T06:53:55.475Z,99643.23
2023-01-19T06:59:01.468Z,99649.91
2023-01-19T07:04:07.723Z,99648.19
2023-01-19T07:09:15.639Z,99641.85
2023-01-19T07:14:24.432Z,99634.13
2023-01-19T07:19:31.205Z,99625.70
2023-01-19T07:24:38.395Z,99617.10
2023-01-19T07:29:45.093Z,99629.09
2023-01-19T07:34:51.260Z,99641.42
2023-01-19T07:39:57.488Z,99629.77
2023-01-19T07:45:04.282Z,99635.76
2023-01-19T07:50:13.996Z,99640.54
2023-01-19T07:55:21.084Z,99642.45
2023-01-19T08:00:27.436Z,99656.17
2023-01-19T08:05:35.553Z,99665.80
2023-01-19T08:10:41.774Z,99675.56
2023-01-19T08:15:51.919Z,99668.52
2023-01-19T08:21:00.280Z,99654.80
2023-01-19T08:26:20.055Z,99648.27
2023-01-19T08:31:26.452Z,99643.77
2023-01-19T08:36:32.441Z,99636.73
2023-01-19T08:41:38.830Z,99635.34
2023-01-19T08:46:44.621Z,99646.49
2023-01-19T08:51:50.758Z,99643.23
2023-01-19T08:56:56.583Z,99654.02
2023-01-19T09:02:02.555Z,99660.88
2023-01-19T09:07:08.968Z,99671.87
2023-01-19T09:12:15.158Z,99679.58
2023-01-19T09:17:21.111Z,99674.43
2023-01-19T09:22:27.270Z,99673.56
2023-01-19T09:27:34.002Z,99667.73
2023-01-19T09:32:40.117Z,99674.44
2023-01-19T09:37:49.069Z,99685.77
2023-01-19T09:42:59.423Z,99695.35
2023-01-19T09:48:18.344Z,99694.66
2023-01-19T09:53:36.187Z,99684.73
2023-01-19T09:58:44.170Z,99684.05
2023-01-19T10:03:53.732Z,99675.28
2023-01-19T10:09:07.316Z,99667.02
2023-01-19T10:14:21.272Z,99662.58
2023-01-19T10:19:33.669Z,99662.40
2023-01-19T10:24:43.923Z,99663.61
2023-01-19T10:29:50.524Z,99659.67
2023-01-19T10:35:01.067Z,99652.46
2023-01-19T10:40:22.535Z,99651.92
2023-01-19T10:45:30.338Z,99648.11
2023-01-19T10:50:41.335Z,99643.15
2023-01-19T10:55:47.547Z,99636.46
2023-01-19T11:00:53.950Z,99631.83
2023-01-19T11:06:22.135Z,99629.20
2023-01-19T11:11:28.240Z,99633.43
2023-01-19T11:16:38.145Z,99636.16
2023-01-19T11:21:44.364Z,99631.86
2023-01-19T11:26:57.637Z,99631.14
2023-01-19T11:32:19.960Z,99625.98
2023-01-19T11:37:34.546Z,99623.52
2023-01-19T11:42:40.650Z,99615.55
2023-01-19T11:47:49.740Z,99611.17
2023-01-19T11:53:00.788Z,99608.21
2023-01-19T11:58:06.547Z,99601.35
2023-01-19T12:03:19.928Z,99600.77
2023-01-19T12:08:30.986Z,99597.59
2023-01-19T12:13:36.191Z,99599.74
2023-01-19T12:18:45.240Z,99603.36
2023-01-19T12:24:01.849Z,99602.35
2023-01-19T12:29:14.307Z,99604.58
2023-01-19T12:34:42.647Z,99603.05
2023-01-19T12:39:51.395Z,99601.13
2023-01-19T12:45:08.493Z,99602.38
2023-01-19T12:50:21.087Z,99602.65
2023-01-19T12:55:31.230Z,99598.94
2023-01-19T13:00:39.943Z,99604.15
2023-01-19T13:05:55.070Z,99605.23
2023-01-19T13:11:18.414Z,99592.52
2023-01-19T13:16:58.997Z,99582.91
2023-01-19T13:23:04.064Z,99583.75
2023-01-19T13:28:14.325Z,99592.45
2023-01-19T13:33:23.948Z,99588.98
2023-01-19T13:38:32.952Z,99583.88
2023-01-19T13:43:39.838Z,99592.11
2023-01-19T13:48:58.338Z,99595.98
2023-01-19T13:54:06.281Z,99597.67
2023-01-19T13:59:14.851Z,99596.83
2023-01-19T14:04:32.475Z,99607.68
2023-01-19T14:09:39.077Z,99613.52
2023-01-19T14:14:48.288Z,99618.14
2023-01-19T14:19:56.508Z,99618.66
2023-01-19T14:25:26.597Z,99613.44
2023-01-19T14:30:35.992Z,99610.56
2023-01-19T14:35:43.604Z,99606.33
2023-01-19T14:40:50.318Z,99601.67
2023-01-19T14:45:58.565Z,99606.45
2023-01-19T14:51:06.548Z,99614.38
2023-01-19T14:56:12.749Z,99617.16
2023-01-19T15:01:18.769Z,99616.34
2023-01-19T15:06:26.544Z,99614.45
2023-01-19T15:11:34.483Z,99619.27
2023-01-19T15:16:41.160Z,99634.20
2023-01-19T15:21:47.569Z,99641.27
2023-01-19T15:26:53.543Z,99640.27
2023-01-19T15:32:00.273Z,99640.74
2023-01-19T15:37:07.980Z,99634.39
2023-01-19T15:42:15.099Z,99637.88
2023-01-19T15:47:21.515Z,99641.63
2023-01-19T15:52:27.763Z,99642.46
2023-01-19T15:57:35.171Z,99651.89
2023-01-19T16:02:41.528Z,99652.73
2023-01-19T16:07:47.878Z,99656.23
2023-01-19T16:12:53.926Z,99652.66
2023-01-19T16:18:00.489Z,99647.33
2023-01-19T16:23:21.599Z,99648.36
2023-01-19T16:28:28.975Z,99649.44
2023-01-19T16:33:34.995Z,99648.98
2023-01-19T16:38:40.921Z,99652.25
2023-01-19T16:43:54.577Z,99652.92
2023-01-19T16:49:03.784Z,99660.29
2023-01-19T16:54:12.329Z,99658.92
2023-01-19T16:59:19.768Z,99664.60
2023-01-19T17:04:27.281Z,99671.47
2023-01-19T17:09:34.075Z,99662.19
2023-01-19T17:14:40.786Z,99658.73
2023-01-19T17:19:47.085Z,99657.02
2023-01-19T17:24:52.881Z,99656.86
2023-01-19T17:29:58.585Z,99656.53
2023-01-19T17:35:04.868Z,99649.83
2023-01-19T17:40:12.667Z,99647.59
2023-01-19T17:45:18.778Z,99643.67
2023-01-19T17:50:24.884Z,99642.00
2023-01-19T17:55:32.509Z,99638.39
2023-01-19T18:00:38.648Z,99644.05
2023-01-19T18:05:52.536Z,99650.23
2023-01-19T18:11:01.138Z,99646.65
2023-01-19T18:16:09.812Z,99640.48
2023-01-19T18:21:17.424Z,99644.08
2023-01-19T18:26:24.117Z,99647.52
2023-01-19T18:31:30.863Z,99646.51
2023-01-19T18:36:37.326Z,99651.67
2023-01-19T18:41:43.239Z,99650.98
2023-01-19T18:46:49.280Z,99648.75
2023-01-19T18:51:56.235Z,99647.88
2023-01-19T18:57:02.378Z,99647.89
2023-01-19T19:02:10.542Z,99649.63
2023-01-19T19:07:20.155Z,99648.62
2023-01-19T19:12:26.532Z,99652.40
2023-01-19T19:17:34.331Z,99655.84
2023-01-19T19:22:40.719Z,99658.10
2023-01-19T19:27:50.247Z,99657.77
2023-01-19T19:32:57.225Z,99662.55
2023-01-19T19:38:03.422Z,99664.80
2023-01-19T19:43:09.705Z,99665.34
2023-01-19T19:48:15.642Z,99668.27
2023-01-19T19:53:22.147Z,99674.77
2023-01-19T19:58:30.574Z,99679.73
2023-01-19T20:03:36.475Z,99684.38
2023-01-19T20:08:42.774Z,99688.15
2023-01-19T20:13:49.303Z,99688.67
2023-01-19T20:18:55.601Z,99688.66
2023-01-19T20:24:04.175Z,99693.64
2023-01-19T20:29:11.063Z,99700.16
2023-01-19T20:34:20.139Z,99701.88
2023-01-19T20:39:26.422Z,99705.83
2023-01-19T20:44:32.346Z,99710.29
2023-01-19T20:49:38.630Z,99713.20
2023-01-19T20:54:44.406Z,99718.02
2023-01-19T20:59:50.351Z,99716.82
2023-01-19T21:04:56.754Z,99723.00
2023-01-19T21:10:03.032Z,99724.88
2023-01-19T21:15:11.436Z,99724.55
2023-01-19T21:20:19.427Z,99727.80
2023-01-19T21:25:25.750Z,99738.77
2023-01-19T21:30:31.794Z,99750.25
2023-01-19T21:35:37.814Z,99756.93
2023-01-19T21:40:44.123Z,99768.74
2023-01-19T21:45:51.015Z,99774.73
2023-01-19T21:51:00.192Z,99779.19
2023-01-19T21:56:08.273Z,99790.32
2023-01-19T22:01:14.868Z,99797.84
2023-01-19T22:06:20.767Z,99797.66
2023-01-19T22:11:28.024Z,99803.48
2023-01-19T22:16:34.492Z,99804.00
2023-01-19T22:21:40.909Z,99802.10
2023-01-19T22:26:47.066Z,99808.42
2023-01-19T22:31:53.973Z,99815.61
2023-01-19T22:37:00.135Z,99811.31
2023-01-19T22:42:06.908Z,99811.16
2023-01-19T22:47:12.689Z,99816.79
2023-01-19T22:52:18.825Z,99821.89
2023-01-19T22:57:25.259Z,99832.52
2023-01-19T23:02:31.473Z,99832.33
2023-01-19T23:07:37.412Z,99833.70
2023-01-19T23:12:43.405Z,99832.66
2023-01-19T23:17:52.925Z,99847.57
2023-01-19T23:22:59.036Z,99852.70
2023-01-19T23:28:05.459Z,99860.90
2023-01-19T23:33:11.612Z,99871.52
2023-01-19T23:38:18.156Z,99870.33
2023-01-19T23:43:24.345Z,99868.94
2023-01-19T23:48:30.569Z,99868.08
2023-01-19T23:53:37.721Z,99879.56
2023-01-19T23:58:44.700Z,99898.05
